Strona główna
METAR-TAF:

METAR-TAF

Lotnisko :

Ashtabula County Airport

Ashtabula, Ohio, Stany Zjednoczone

Szerokość geograficzna: 41-46-46N, Długość geograficzna: 080-41-48W, wysokość: 281 m

Aktualna obserwacja pogody

Raport powstał 11 minut temu, godzina 13:53 UTC
Wiatr 11 kt od zachód
Temperatura -1°C
Wilgotność 93%
Ciśnienie 1014 hPa
Widzialność: 2.8 km
Przerywane chmury na wysokości 1400 ft
Zachmurzenie całkowite na wysokości 1900 ft
słaby śnieg, zamglenie

METAR: KHZY 151353Z AUTO 27011KT 1 3/4SM -SN BR BKN014 OVC019 M01/M02 A2993 RMK AO2 SNB1258 SLP143 P0000 T10111022

czas: 09:04 (14:04 UTC)


TAF: brakujący

Obserwacja i prognoza pogody dla ponad 4000 lotnisk (raport METAR i TAF).

Dostępne stacje oznaczono żółtymi i czerwonymi punktami na mapie.

Najedź kursorem aby zobaczyć nazwę stacji.

Kliknij aby zobaczyć obserwacje i prognozy pogody.

Aby zmienić mapę: kliknij na zielony przycisk z czarnym krzyżykiem, aby powiększyć; na zielony przycisk z myślnikiem, aby pomniejszyć; na zielone strzałki, aby przejść do map sąsiednich.


METAR-TAF: